createdAt,value
2023-01-20T00:00:56.279Z,3.50
2023-01-20T00:03:22.507Z,3.50
2023-01-20T00:05:48.674Z,3.80
2023-01-20T00:08:14.824Z,3.78
2023-01-20T00:10:40.962Z,3.95
2023-01-20T00:13:07.096Z,3.47
2023-01-20T00:15:33.293Z,3.80
2023-01-20T00:17:59.457Z,3.83
2023-01-20T00:20:25.595Z,3.50
2023-01-20T00:22:51.723Z,3.35
2023-01-20T00:25:17.974Z,3.15
2023-01-20T00:27:44.100Z,3.42
2023-01-20T00:30:10.351Z,3.40
2023-01-20T00:32:36.536Z,3.30
2023-01-20T00:35:02.655Z,2.92
2023-01-20T00:37:28.868Z,2.85
2023-01-20T00:39:54.986Z,3.55
2023-01-20T00:42:21.163Z,2.72
2023-01-20T00:44:47.273Z,3.45
2023-01-20T00:47:13.414Z,3.15
2023-01-20T00:49:39.535Z,3.10
2023-01-20T00:52:05.694Z,3.17
2023-01-20T00:54:31.805Z,3.10
2023-01-20T00:56:57.935Z,2.88
2023-01-20T00:59:24.055Z,3.25
2023-01-20T01:01:50.298Z,2.78
2023-01-20T01:04:16.476Z,3.10
2023-01-20T01:06:42.667Z,2.72
2023-01-20T01:09:08.812Z,2.85
2023-01-20T01:11:34.939Z,2.85
2023-01-20T01:14:01.122Z,3.15
2023-01-20T01:16:27.378Z,3.13
2023-01-20T01:18:53.548Z,3.50
2023-01-20T01:21:19.654Z,3.60
2023-01-20T01:23:45.878Z,3.20
2023-01-20T01:26:12.022Z,3.25
2023-01-20T01:28:38.192Z,3.08
2023-01-20T01:31:04.381Z,3.42
2023-01-20T01:33:30.557Z,3.10
2023-01-20T01:35:56.699Z,3.05
2023-01-20T01:38:22.825Z,3.17
2023-01-20T01:40:48.956Z,3.00
2023-01-20T01:43:15.079Z,2.85
2023-01-20T01:45:41.250Z,3.25
2023-01-20T01:48:07.479Z,3.35
2023-01-20T01:50:33.638Z,3.15
2023-01-20T01:52:59.792Z,3.08
2023-01-20T01:55:25.960Z,3.33
2023-01-20T01:57:52.100Z,3.33
2023-01-20T02:00:18.249Z,2.92
2023-01-20T02:02:44.377Z,3.30
2023-01-20T02:05:10.647Z,3.53
2023-01-20T02:07:36.891Z,3.42
2023-01-20T02:10:03.058Z,2.90
2023-01-20T02:12:29.255Z,3.28
2023-01-20T02:14:55.458Z,4.00
2023-01-20T02:17:21.580Z,3.35
2023-01-20T02:19:47.763Z,3.92
2023-01-20T02:22:13.898Z,3.75
2023-01-20T02:24:40.025Z,4.20
2023-01-20T02:27:06.204Z,4.05
2023-01-20T02:29:32.379Z,4.07
2023-01-20T02:31:58.567Z,4.00
2023-01-20T02:34:24.755Z,3.78
2023-01-20T02:36:50.904Z,3.75
2023-01-20T02:39:27.373Z,3.60
2023-01-20T02:41:53.953Z,4.28
2023-01-20T02:44:20.077Z,3.85
2023-01-20T02:46:46.208Z,4.30
2023-01-20T02:49:12.360Z,3.92
2023-01-20T02:51:38.495Z,3.80
2023-01-20T02:54:04.641Z,3.40
2023-01-20T02:56:30.796Z,3.40
2023-01-20T02:58:56.942Z,3.83
2023-01-20T03:01:23.138Z,3.55
2023-01-20T03:03:49.438Z,3.83
2023-01-20T03:06:15.577Z,3.55
2023-01-20T03:08:41.712Z,3.15
2023-01-20T03:11:07.841Z,3.38
2023-01-20T03:13:34.160Z,3.40
2023-01-20T03:16:00.293Z,3.67
2023-01-20T03:18:26.419Z,3.05
2023-01-20T03:20:52.560Z,3.25
2023-01-20T03:23:18.709Z,3.25
2023-01-20T03:25:44.874Z,3.25
2023-01-20T03:28:10.991Z,2.63
2023-01-20T03:30:37.180Z,2.97
2023-01-20T03:33:03.417Z,3.15
2023-01-20T03:35:29.653Z,2.67
2023-01-20T03:37:55.825Z,3.22
2023-01-20T03:40:21.976Z,2.85
2023-01-20T03:42:48.098Z,3.00
2023-01-20T03:45:14.517Z,3.00
2023-01-20T03:47:40.788Z,3.03
2023-01-20T03:50:06.952Z,2.92
2023-01-20T03:52:47.959Z,3.30
2023-01-20T03:55:14.809Z,2.92
2023-01-20T03:57:40.995Z,3.00
2023-01-20T04:00:07.135Z,2.80
2023-01-20T04:02:33.256Z,2.65
2023-01-20T04:04:59.386Z,2.67
2023-01-20T04:07:25.499Z,3.03
2023-01-20T04:09:51.647Z,3.42
2023-01-20T04:12:17.787Z,2.78
2023-01-20T04:14:43.956Z,3.40
2023-01-20T04:17:10.064Z,3.00
2023-01-20T04:19:36.190Z,3.35
2023-01-20T04:22:02.311Z,3.17
2023-01-20T04:24:28.447Z,2.97
2023-01-20T04:26:54.605Z,3.05
2023-01-20T04:29:20.735Z,3.28
2023-01-20T04:31:46.890Z,3.22
2023-01-20T04:34:13.038Z,2.90
2023-01-20T04:36:39.175Z,2.92
2023-01-20T04:39:05.296Z,3.67
2023-01-20T04:44:05.177Z,3.53
2023-01-20T04:46:31.327Z,3.03
2023-01-20T04:48:57.480Z,2.72
2023-01-20T04:51:23.622Z,3.22
2023-01-20T04:53:49.744Z,3.33
2023-01-20T04:56:15.872Z,3.50
2023-01-20T04:58:41.982Z,3.33
2023-01-20T05:01:08.142Z,3.50
2023-01-20T05:03:34.259Z,3.42
2023-01-20T05:06:00.386Z,3.55
2023-01-20T05:08:26.498Z,3.60
2023-01-20T05:10:52.613Z,3.40
2023-01-20T05:13:18.777Z,3.88
2023-01-20T05:15:44.926Z,3.70
2023-01-20T05:18:11.142Z,4.47
2023-01-20T05:20:37.256Z,4.10
2023-01-20T05:23:03.371Z,3.78
2023-01-20T05:25:29.473Z,3.95
2023-01-20T05:27:55.602Z,4.40
2023-01-20T05:30:21.787Z,4.25
2023-01-20T05:32:47.945Z,4.75
2023-01-20T05:35:14.270Z,4.35
2023-01-20T05:37:40.577Z,4.78
2023-01-20T05:40:06.709Z,5.32
2023-01-20T05:47:50.067Z,5.00
2023-01-20T05:50:16.179Z,6.35
2023-01-20T05:52:42.309Z,5.55
2023-01-20T05:55:08.442Z,5.90
2023-01-20T05:57:34.581Z,5.70
2023-01-20T06:00:00.737Z,5.82
2023-01-20T06:02:26.859Z,5.57
2023-01-20T06:04:53.188Z,6.45
2023-01-20T06:07:19.341Z,6.20
2023-01-20T06:09:45.473Z,5.47
2023-01-20T06:12:11.577Z,4.78
2023-01-20T06:14:37.709Z,5.78
2023-01-20T06:17:03.812Z,6.20
2023-01-20T06:19:29.931Z,6.05
2023-01-20T06:21:56.078Z,6.35
2023-01-20T06:24:22.224Z,6.47
2023-01-20T06:26:48.403Z,5.03
2023-01-20T06:29:14.523Z,5.20
2023-01-20T06:31:40.708Z,4.65
2023-01-20T06:34:06.918Z,5.30
2023-01-20T06:36:33.020Z,4.28
2023-01-20T06:38:59.165Z,4.63
2023-01-20T06:41:25.311Z,3.88
2023-01-20T06:43:51.435Z,4.03
2023-01-20T06:46:17.617Z,4.10
2023-01-20T06:48:43.771Z,4.30
2023-01-20T06:51:09.919Z,4.28
2023-01-20T06:53:36.036Z,4.30
2023-01-20T06:56:02.175Z,3.80
2023-01-20T06:58:28.291Z,4.00
2023-01-20T07:00:54.521Z,4.20
2023-01-20T07:03:20.770Z,4.28
2023-01-20T07:05:46.900Z,4.55
2023-01-20T07:08:13.002Z,4.65
2023-01-20T07:10:39.151Z,4.22
2023-01-20T07:13:05.271Z,3.90
2023-01-20T07:15:31.381Z,4.57
2023-01-20T07:17:57.540Z,4.20
2023-01-20T07:20:23.656Z,4.68
2023-01-20T07:22:49.786Z,4.63
2023-01-20T07:25:16.270Z,4.50
2023-01-20T07:27:42.564Z,4.47
2023-01-20T07:30:08.825Z,4.15
2023-01-20T07:32:34.990Z,4.57
2023-01-20T07:35:01.102Z,4.15
2023-01-20T07:37:27.233Z,4.93
2023-01-20T07:39:53.348Z,4.75
2023-01-20T07:42:19.504Z,4.82
2023-01-20T07:44:45.612Z,5.53
2023-01-20T07:47:11.775Z,5.30
2023-01-20T07:49:37.885Z,5.20
2023-01-20T07:52:04.040Z,4.78
2023-01-20T07:54:30.165Z,5.30
2023-01-20T07:56:56.340Z,4.97
2023-01-20T07:59:22.449Z,4.90
2023-01-20T08:01:48.657Z,5.03
2023-01-20T08:04:14.913Z,4.93
2023-01-20T08:06:41.037Z,4.57
2023-01-20T08:09:07.211Z,5.22
2023-01-20T08:11:33.375Z,5.00
2023-01-20T08:13:59.519Z,4.43
2023-01-20T08:16:25.644Z,5.10
2023-01-20T08:18:51.775Z,5.10
2023-01-20T08:21:17.914Z,4.70
2023-01-20T08:23:44.074Z,4.95
2023-01-20T08:26:10.180Z,5.78
2023-01-20T08:28:36.355Z,5.30
2023-01-20T08:31:02.547Z,5.50
2023-01-20T08:33:28.847Z,5.55
2023-01-20T08:35:54.976Z,6.13
2023-01-20T08:38:21.122Z,5.10
2023-01-20T08:40:47.244Z,4.88
2023-01-20T08:43:13.377Z,5.32
2023-01-20T08:45:39.552Z,4.80
2023-01-20T08:48:05.660Z,5.70
2023-01-20T08:50:31.816Z,4.57
2023-01-20T08:52:57.934Z,5.75
2023-01-20T08:55:24.068Z,4.60
2023-01-20T08:57:50.229Z,4.75
2023-01-20T09:00:16.515Z,4.35
2023-01-20T09:02:42.686Z,4.72
2023-01-20T09:05:08.919Z,5.10
2023-01-20T09:07:36.117Z,4.95
2023-01-20T09:10:02.267Z,4.82
2023-01-20T09:12:28.383Z,4.90
2023-01-20T09:14:54.518Z,4.65
2023-01-20T09:17:20.647Z,5.13
2023-01-20T09:19:46.800Z,4.32
2023-01-20T09:22:12.966Z,4.82
2023-01-20T09:24:39.093Z,5.30
2023-01-20T09:27:05.219Z,4.85
2023-01-20T09:29:31.335Z,4.82
2023-01-20T09:31:57.512Z,5.00
2023-01-20T09:34:23.701Z,4.82
2023-01-20T09:36:49.824Z,4.35
2023-01-20T09:39:15.937Z,3.95
2023-01-20T09:41:42.288Z,4.38
2023-01-20T09:44:08.451Z,4.15
2023-01-20T09:46:34.611Z,3.95
2023-01-20T09:49:00.738Z,3.47
2023-01-20T09:51:26.860Z,3.22
2023-01-20T09:53:52.975Z,2.65
2023-01-20T09:56:19.206Z,3.15
2023-01-20T09:58:45.333Z,2.78
2023-01-20T10:01:11.522Z,2.85
2023-01-20T10:03:37.659Z,3.13
2023-01-20T10:06:03.798Z,3.22
2023-01-20T10:08:29.947Z,3.30
2023-01-20T10:10:56.084Z,3.00
2023-01-20T10:13:22.229Z,3.30
2023-01-20T10:15:48.388Z,3.47
2023-01-20T10:18:14.540Z,3.47
2023-01-20T10:20:40.679Z,3.22
2023-01-20T10:23:06.786Z,3.15
2023-01-20T10:25:32.981Z,3.22
2023-01-20T10:27:59.101Z,2.00
2023-01-20T10:30:25.282Z,2.80
2023-01-20T10:32:51.427Z,2.50
2023-01-20T10:35:17.988Z,2.63
2023-01-20T10:37:44.352Z,2.67
2023-01-20T10:40:10.526Z,2.75
2023-01-20T10:42:36.711Z,2.40
2023-01-20T10:45:02.823Z,2.33
2023-01-20T10:47:29.031Z,3.13
2023-01-20T10:49:55.172Z,2.20
2023-01-20T10:52:21.306Z,2.45
2023-01-20T10:54:47.449Z,2.30
2023-01-20T10:57:13.616Z,2.38
2023-01-20T10:59:39.737Z,2.65
2023-01-20T11:02:11.935Z,2.50
2023-01-20T11:04:38.730Z,2.70
2023-01-20T11:07:04.870Z,2.90
2023-01-20T11:09:31.055Z,3.00
2023-01-20T11:11:57.170Z,3.20
2023-01-20T11:14:24.795Z,2.55
2023-01-20T11:16:52.195Z,2.42
2023-01-20T11:19:18.339Z,2.78
2023-01-20T11:21:44.478Z,2.85
2023-01-20T11:24:10.594Z,2.70
2023-01-20T11:26:36.706Z,2.20
2023-01-20T11:29:02.935Z,2.22
2023-01-20T11:31:29.185Z,1.60
2023-01-20T11:33:55.339Z,1.40
2023-01-20T11:36:21.478Z,1.35
2023-01-20T11:38:47.630Z,1.52
2023-01-20T11:41:13.935Z,1.60
2023-01-20T11:43:40.092Z,1.70
2023-01-20T11:46:06.208Z,2.10
2023-01-20T11:48:32.361Z,1.83
2023-01-20T11:50:58.491Z,2.10
2023-01-20T11:53:24.653Z,2.20
2023-01-20T11:55:50.810Z,2.42
2023-01-20T11:58:16.948Z,2.60
2023-01-20T12:00:43.080Z,2.33
2023-01-20T12:03:09.201Z,2.50
2023-01-20T12:05:35.335Z,2.13
2023-01-20T12:08:01.505Z,2.22
2023-01-20T12:10:27.689Z,2.67
2023-01-20T12:12:53.821Z,2.90
2023-01-20T12:15:19.957Z,2.47
2023-01-20T12:17:46.096Z,2.97
2023-01-20T12:20:12.235Z,3.50
2023-01-20T12:22:38.355Z,3.00
2023-01-20T12:25:04.474Z,2.97
2023-01-20T12:27:30.605Z,3.15
2023-01-20T12:29:56.735Z,3.33
2023-01-20T12:32:22.855Z,3.03
2023-01-20T12:34:49.017Z,3.28
2023-01-20T12:37:15.173Z,3.10
2023-01-20T12:39:41.321Z,3.13
2023-01-20T12:42:07.498Z,3.85
2023-01-20T12:44:33.640Z,4.03
2023-01-20T12:46:59.776Z,3.78
2023-01-20T12:49:25.902Z,4.00
2023-01-20T12:51:52.033Z,4.55
2023-01-20T12:54:18.183Z,4.53
2023-01-20T12:56:44.307Z,4.45
2023-01-20T12:59:10.414Z,6.03
2023-01-20T13:01:36.555Z,4.97
2023-01-20T13:04:02.701Z,5.35
2023-01-20T13:06:28.848Z,6.78
2023-01-20T13:08:54.984Z,7.25
2023-01-20T13:11:21.096Z,6.07
2023-01-20T13:13:57.016Z,6.13
2023-01-20T13:16:23.941Z,6.22
2023-01-20T13:18:50.100Z,6.13
2023-01-20T13:21:18.761Z,6.22
2023-01-20T13:23:45.138Z,6.80
2023-01-20T13:26:11.269Z,6.55
2023-01-20T13:28:37.401Z,6.53
2023-01-20T13:31:03.653Z,6.57
2023-01-20T13:33:29.902Z,6.07
2023-01-20T13:35:56.093Z,6.50
2023-01-20T13:38:22.218Z,7.03
2023-01-20T13:40:48.322Z,6.30
2023-01-20T13:43:14.463Z,6.93
2023-01-20T13:45:40.673Z,6.30
2023-01-20T13:48:06.874Z,6.32
2023-01-20T13:50:33.042Z,7.00
2023-01-20T13:52:59.190Z,6.43
2023-01-20T13:55:25.410Z,6.90
2023-01-20T13:57:51.543Z,6.68
2023-01-20T14:00:17.729Z,6.75
2023-01-20T14:02:43.855Z,7.45
2023-01-20T14:05:10.055Z,7.32
2023-01-20T14:07:36.165Z,7.15
2023-01-20T14:10:02.437Z,7.70
2023-01-20T14:12:28.553Z,7.18
2023-01-20T14:14:54.690Z,6.78
2023-01-20T14:17:20.879Z,7.32
2023-01-20T14:19:47.012Z,7.55
2023-01-20T14:22:13.164Z,7.55
2023-01-20T14:24:39.291Z,8.02
2023-01-20T14:27:05.399Z,8.77
2023-01-20T14:29:31.586Z,7.28
2023-01-20T14:31:57.752Z,7.32
2023-01-20T14:34:23.926Z,7.63
2023-01-20T14:36:50.063Z,8.70
2023-01-20T14:39:16.181Z,8.48
2023-01-20T14:41:42.331Z,7.60
2023-01-20T14:44:08.450Z,8.32
2023-01-20T14:46:34.631Z,8.52
2023-01-20T14:49:00.801Z,8.23
2023-01-20T14:51:26.981Z,8.75
2023-01-20T14:53:53.101Z,8.48
2023-01-20T14:56:19.226Z,8.32
2023-01-20T14:58:45.357Z,8.18
2023-01-20T15:01:11.558Z,9.13
2023-01-20T15:03:37.758Z,8.48
2023-01-20T15:06:03.890Z,8.50
2023-01-20T15:08:30.013Z,7.88
2023-01-20T15:10:56.141Z,8.32
2023-01-20T15:13:22.519Z,8.88
2023-01-20T15:15:48.774Z,8.10
2023-01-20T15:18:14.954Z,8.65
2023-01-20T15:20:41.078Z,8.82
2023-01-20T15:23:07.227Z,8.77
2023-01-20T15:25:33.421Z,7.80
2023-01-20T15:27:59.542Z,9.68
2023-01-20T15:30:25.682Z,9.00
2023-01-20T15:32:51.822Z,9.05
2023-01-20T15:35:17.941Z,9.27
2023-01-20T15:37:44.105Z,9.73
2023-01-20T15:40:10.242Z,9.13
2023-01-20T15:42:36.384Z,9.23
2023-01-20T15:45:02.502Z,8.90
2023-01-20T15:47:28.662Z,9.20
2023-01-20T15:49:54.773Z,9.88
2023-01-20T15:52:20.924Z,9.35
2023-01-20T15:54:47.042Z,9.30
2023-01-20T15:57:13.210Z,10.35
2023-01-20T15:59:39.342Z,9.77
2023-01-20T16:02:05.470Z,9.63
2023-01-20T16:04:31.586Z,9.15
2023-01-20T16:06:57.716Z,9.65
2023-01-20T16:09:23.975Z,7.93
2023-01-20T16:11:50.155Z,10.63
2023-01-20T16:14:16.289Z,10.13
2023-01-20T16:16:42.422Z,10.40
2023-01-20T16:19:08.561Z,9.52
2023-01-20T16:21:34.703Z,10.23
2023-01-20T16:24:00.842Z,9.98
2023-01-20T16:26:27.004Z,9.73
2023-01-20T16:28:53.161Z,9.80
2023-01-20T16:31:19.390Z,9.93
2023-01-20T16:33:45.576Z,9.88
2023-01-20T16:36:11.681Z,10.43
2023-01-20T16:38:37.815Z,9.65
2023-01-20T16:41:04.018Z,10.90
2023-01-20T16:43:30.359Z,9.90
2023-01-20T16:45:56.639Z,11.02
2023-01-20T16:48:22.916Z,10.23
2023-01-20T16:50:49.076Z,10.23
2023-01-20T16:53:15.359Z,10.77
2023-01-20T16:55:41.530Z,10.18
2023-01-20T16:58:07.662Z,9.52
2023-01-20T17:00:33.800Z,9.70
2023-01-20T17:02:59.921Z,9.93
2023-01-20T17:05:26.072Z,10.60
2023-01-20T17:07:52.219Z,10.10
2023-01-20T17:10:18.461Z,10.35
2023-01-20T17:12:45.008Z,9.98
2023-01-20T17:15:12.053Z,9.57
2023-01-20T17:17:38.222Z,9.85
2023-01-20T17:20:04.368Z,9.30
2023-01-20T17:22:32.477Z,10.50
2023-01-20T17:24:58.595Z,9.77
2023-01-20T17:27:24.750Z,9.90
2023-01-20T17:29:50.912Z,9.57
2023-01-20T17:32:17.092Z,9.25
2023-01-20T17:34:43.214Z,9.88
2023-01-20T17:37:09.363Z,9.93
2023-01-20T17:39:35.647Z,9.98
2023-01-20T17:42:01.758Z,9.32
2023-01-20T17:44:27.940Z,9.40
2023-01-20T17:46:54.063Z,9.75
2023-01-20T17:49:20.186Z,10.77
2023-01-20T17:51:46.319Z,10.20
2023-01-20T17:54:12.458Z,10.13
2023-01-20T17:56:38.601Z,11.52
2023-01-20T17:59:04.749Z,9.98
2023-01-20T18:01:30.928Z,10.30
2023-01-20T18:03:57.159Z,10.52
2023-01-20T18:06:23.287Z,10.93
2023-01-20T18:08:49.445Z,10.93
2023-01-20T18:11:15.638Z,11.68
2023-01-20T18:13:41.777Z,11.65
2023-01-20T18:16:07.923Z,10.70
2023-01-20T18:18:34.042Z,9.95
2023-01-20T18:21:00.204Z,10.45
2023-01-20T18:23:26.325Z,10.05
2023-01-20T18:25:52.494Z,9.73
2023-01-20T18:28:18.599Z,10.80
2023-01-20T18:30:44.884Z,11.02
2023-01-20T18:33:11.028Z,10.88
2023-01-20T18:35:37.165Z,9.77
2023-01-20T18:38:03.287Z,10.60
2023-01-20T18:40:29.436Z,10.25
2023-01-20T18:42:55.551Z,9.85
2023-01-20T18:45:21.751Z,10.68
2023-01-20T18:47:47.921Z,9.23
2023-01-20T18:50:14.470Z,9.18
2023-01-20T18:52:40.683Z,9.55
2023-01-20T18:55:06.827Z,10.52
2023-01-20T18:57:33.011Z,9.23
2023-01-20T18:59:59.154Z,9.65
2023-01-20T19:02:25.318Z,10.35
2023-01-20T19:04:51.469Z,10.48
2023-01-20T19:07:17.713Z,10.55
2023-01-20T19:09:43.849Z,9.60
2023-01-20T19:12:09.990Z,9.93
2023-01-20T19:14:36.121Z,9.55
2023-01-20T19:17:02.261Z,9.43
2023-01-20T19:19:28.388Z,10.20
2023-01-20T19:21:54.543Z,8.88
2023-01-20T19:24:20.673Z,9.82
2023-01-20T19:26:46.818Z,9.32
2023-01-20T19:29:12.948Z,9.13
2023-01-20T19:31:39.119Z,9.65
2023-01-20T19:34:05.269Z,10.20
2023-01-20T19:36:31.432Z,9.75
2023-01-20T19:38:57.578Z,9.77
2023-01-20T19:41:23.705Z,9.75
2023-01-20T19:43:49.822Z,9.80
2023-01-20T19:46:16.199Z,10.13
2023-01-20T19:48:42.341Z,10.20
2023-01-20T19:51:08.520Z,9.15
2023-01-20T19:53:34.695Z,9.45
2023-01-20T19:56:00.950Z,9.73
2023-01-20T19:58:27.089Z,9.88
2023-01-20T20:00:53.214Z,9.75
2023-01-20T20:03:19.397Z,9.77
2023-01-20T20:05:45.524Z,10.70
2023-01-20T20:08:11.650Z,9.45
2023-01-20T20:10:37.789Z,8.45
2023-01-20T20:13:03.946Z,9.65
2023-01-20T20:15:30.060Z,9.80
2023-01-20T20:17:56.200Z,9.23
2023-01-20T20:20:22.319Z,9.45
2023-01-20T20:22:48.464Z,10.50
2023-01-20T20:25:14.579Z,8.60
2023-01-20T20:27:40.712Z,9.18
2023-01-20T20:30:06.861Z,8.98
2023-01-20T20:32:33.011Z,8.90
2023-01-20T20:34:59.115Z,9.45
2023-01-20T20:37:25.281Z,8.95
2023-01-20T20:39:51.413Z,9.15
2023-01-20T20:42:17.530Z,9.52
2023-01-20T20:44:43.633Z,10.27
2023-01-20T20:47:09.755Z,10.50
2023-01-20T20:49:35.938Z,10.43
2023-01-20T20:52:02.114Z,9.30
2023-01-20T20:54:28.266Z,10.20
2023-01-20T20:56:54.403Z,9.55
2023-01-20T20:59:20.555Z,10.98
2023-01-20T21:01:46.773Z,9.90
2023-01-20T21:04:13.045Z,10.48
2023-01-20T21:06:39.405Z,9.73
2023-01-20T21:09:05.690Z,9.75
2023-01-20T21:11:31.842Z,9.73
2023-01-20T21:13:57.993Z,8.68
2023-01-20T21:16:24.289Z,9.23
2023-01-20T21:18:50.523Z,7.45
2023-01-20T21:21:16.797Z,8.75
2023-01-20T21:23:42.922Z,8.38
2023-01-20T21:26:09.053Z,8.05
2023-01-20T21:28:35.208Z,7.95
2023-01-20T21:31:01.561Z,8.00
2023-01-20T21:33:27.725Z,7.60
2023-01-20T21:35:53.886Z,8.07
2023-01-20T21:38:20.020Z,8.20
2023-01-20T21:40:46.161Z,7.68
2023-01-20T21:43:12.269Z,7.30
2023-01-20T21:45:38.420Z,8.82
2023-01-20T21:48:04.550Z,8.52
2023-01-20T21:50:30.689Z,7.25
2023-01-20T21:52:56.838Z,8.65
2023-01-20T21:55:23.020Z,8.18
2023-01-20T21:57:51.127Z,8.43
2023-01-20T22:00:17.929Z,8.55
2023-01-20T22:02:44.170Z,7.75
2023-01-20T22:05:10.311Z,9.88
2023-01-20T22:07:36.707Z,8.93
2023-01-20T22:10:02.850Z,9.00
2023-01-20T22:12:28.979Z,8.07
2023-01-20T22:14:55.172Z,8.55
2023-01-20T22:17:21.307Z,7.88
2023-01-20T22:19:47.447Z,8.73
2023-01-20T22:22:15.285Z,9.02
2023-01-20T22:24:41.521Z,8.77
2023-01-20T22:27:07.667Z,8.63
2023-01-20T22:29:33.803Z,9.65
2023-01-20T22:32:00.012Z,9.60
2023-01-20T22:34:26.169Z,9.18
2023-01-20T22:36:52.363Z,8.45
2023-01-20T22:39:18.561Z,8.98
2023-01-20T22:41:44.715Z,9.45
2023-01-20T22:44:10.861Z,9.38
2023-01-20T22:46:37.010Z,10.57
2023-01-20T22:49:03.159Z,9.30
2023-01-20T22:51:29.334Z,9.50
2023-01-20T22:53:55.445Z,8.80
2023-01-20T22:56:21.568Z,9.60
2023-01-20T22:58:47.738Z,9.18
2023-01-20T23:01:13.958Z,9.90
2023-01-20T23:03:40.099Z,8.77
2023-01-20T23:06:06.210Z,9.98
2023-01-20T23:08:32.358Z,10.23
2023-01-20T23:10:58.457Z,10.50
2023-01-20T23:13:24.582Z,10.00
2023-01-20T23:15:50.696Z,9.85
2023-01-20T23:18:16.814Z,8.48
2023-01-20T23:20:42.949Z,9.30
2023-01-20T23:23:09.081Z,8.25
2023-01-20T23:25:35.194Z,9.25
2023-01-20T23:28:01.397Z,9.35
2023-01-20T23:30:27.506Z,8.73
2023-01-20T23:32:53.623Z,9.88
2023-01-20T23:35:19.728Z,9.25
2023-01-20T23:37:45.868Z,10.10
2023-01-20T23:40:11.987Z,9.25
2023-01-20T23:42:38.133Z,9.70
2023-01-20T23:45:04.257Z,8.77
2023-01-20T23:47:30.369Z,8.73
2023-01-20T23:49:56.535Z,9.50
2023-01-20T23:52:22.639Z,9.30
2023-01-20T23:54:48.764Z,10.13
2023-01-20T23:57:14.883Z,9.77
2023-01-20T23:59:41.007Z,9.30
